createdAt,value
2019-03-11T00:00:24.911Z,58.53
2019-03-11T00:01:24.877Z,57.70
2019-03-11T00:02:24.868Z,58.22
2019-03-11T00:03:24.857Z,57.81
2019-03-11T00:04:25.663Z,58.11
2019-03-11T00:05:24.822Z,57.91
2019-03-11T00:06:24.815Z,58.42
2019-03-11T00:07:24.806Z,57.81
2019-03-11T00:08:24.788Z,58.53
2019-03-11T00:09:24.790Z,58.53
2019-03-11T00:10:24.774Z,58.53
2019-03-11T00:11:24.756Z,58.42
2019-03-11T00:12:24.912Z,59.89
2019-03-11T00:13:24.747Z,59.58
2019-03-11T00:14:24.730Z,59.89
2019-03-11T00:15:24.729Z,59.79
2019-03-11T00:16:24.711Z,59.79
2019-03-11T00:17:24.688Z,60.07
2019-03-11T00:18:24.677Z,59.86
2019-03-11T00:19:24.670Z,60.61
2019-03-11T00:20:24.654Z,60.61
2019-03-11T00:21:24.710Z,60.51
2019-03-11T00:22:24.678Z,60.51
2019-03-11T00:23:24.644Z,60.51
2019-03-11T00:24:24.660Z,60.41
2019-03-11T00:25:24.602Z,60.10
2019-03-11T00:26:24.588Z,60.41
2019-03-11T00:27:24.574Z,60.82
2019-03-11T00:28:24.575Z,60.93
2019-03-11T00:29:24.562Z,60.41
2019-03-11T00:30:24.576Z,60.51
2019-03-11T00:31:24.536Z,60.00
2019-03-11T00:32:24.523Z,60.51
2019-03-11T00:33:24.574Z,60.51
2019-03-11T00:34:24.537Z,60.10
2019-03-11T00:35:24.513Z,60.21
2019-03-11T00:36:24.475Z,60.61
2019-03-11T00:37:24.466Z,60.00
2019-03-11T00:38:24.461Z,60.51
2019-03-11T00:39:24.488Z,61.54
2019-03-11T00:40:24.487Z,61.44
2019-03-11T00:41:24.436Z,60.93
2019-03-11T00:42:24.411Z,60.31
2019-03-11T00:43:24.398Z,60.10
2019-03-11T00:44:24.413Z,60.10
2019-03-11T00:45:24.592Z,60.61
2019-03-11T00:46:24.397Z,59.89
2019-03-11T00:47:24.353Z,60.00
2019-03-11T00:48:24.349Z,60.51
2019-03-11T00:49:24.388Z,60.51
2019-03-11T00:50:24.356Z,59.89
2019-03-11T00:51:24.343Z,60.31
2019-03-11T00:52:24.366Z,60.51
2019-03-11T00:53:24.290Z,60.51
2019-03-11T00:54:24.302Z,60.10
2019-03-11T00:55:24.269Z,60.21
2019-03-11T00:56:24.273Z,60.61
2019-03-11T00:57:24.251Z,60.61
2019-03-11T00:58:24.232Z,60.31
2019-03-11T00:59:24.234Z,61.03
2019-03-11T01:00:24.216Z,60.93
2019-03-11T01:01:24.223Z,61.85
2019-03-11T01:02:24.244Z,61.85
2019-03-11T01:03:24.239Z,61.54
2019-03-11T01:04:24.171Z,61.54
2019-03-11T01:05:24.168Z,61.26
2019-03-11T01:06:24.143Z,60.93
2019-03-11T01:07:24.139Z,61.85
2019-03-11T01:08:24.150Z,61.03
2019-03-11T01:09:24.115Z,59.92
2019-03-11T01:10:24.125Z,61.26
2019-03-11T01:11:24.087Z,61.36
2019-03-11T01:12:24.079Z,61.47
2019-03-11T01:13:24.085Z,61.13
2019-03-11T01:14:24.057Z,61.65
2019-03-11T01:15:24.105Z,61.78
2019-03-11T01:16:24.053Z,61.88
2019-03-11T01:17:24.027Z,61.44
2019-03-11T01:18:24.014Z,61.54
2019-03-11T01:19:24.005Z,60.85
2019-03-11T01:20:23.998Z,61.68
2019-03-11T01:21:23.993Z,61.24
2019-03-11T01:22:23.969Z,61.03
2019-03-11T01:23:23.952Z,60.93
2019-03-11T01:24:23.952Z,59.92
2019-03-11T01:25:23.954Z,60.00
2019-03-11T01:26:23.936Z,60.54
2019-03-11T01:27:23.920Z,59.92
2019-03-11T01:28:23.974Z,61.13
2019-03-11T01:29:23.987Z,60.23
2019-03-11T01:30:23.950Z,60.33
2019-03-11T01:31:23.865Z,61.05
2019-03-11T01:32:23.861Z,59.82
2019-03-11T01:33:23.842Z,60.64
2019-03-11T01:34:23.835Z,60.44
2019-03-11T01:35:23.895Z,60.54
2019-03-11T01:36:23.851Z,60.75
2019-03-11T01:37:23.843Z,59.82
2019-03-11T01:38:23.828Z,60.54
2019-03-11T01:39:23.777Z,60.54
2019-03-11T01:40:23.772Z,60.54
2019-03-11T01:41:23.755Z,60.33
2019-03-11T01:42:23.747Z,60.33
2019-03-11T01:43:23.749Z,60.51
2019-03-11T01:44:23.728Z,60.33
2019-03-11T01:45:23.722Z,60.54
2019-03-11T01:46:23.701Z,59.92
2019-03-11T01:47:23.687Z,60.33
2019-03-11T01:48:23.675Z,60.44
2019-03-11T01:49:24.091Z,60.44
2019-03-11T01:50:23.654Z,60.00
2019-03-11T01:51:23.642Z,60.44
2019-03-11T01:52:23.641Z,60.33
2019-03-11T01:53:23.739Z,60.33
2019-03-11T01:54:23.613Z,60.85
2019-03-11T01:55:23.601Z,60.75
2019-03-11T01:56:23.592Z,59.82
2019-03-11T01:57:23.579Z,60.02
2019-03-11T01:58:23.566Z,61.16
2019-03-11T01:59:23.566Z,59.82
2019-03-11T02:00:23.545Z,60.54
2019-03-11T02:01:23.535Z,61.19
2019-03-11T02:02:23.529Z,60.54
2019-03-11T02:03:23.513Z,60.57
2019-03-11T02:04:23.502Z,60.44
2019-03-11T02:05:23.509Z,60.47
2019-03-11T02:06:23.478Z,60.57
2019-03-11T02:07:23.465Z,61.19
2019-03-11T02:08:23.465Z,59.92
2019-03-11T02:09:23.443Z,60.36
2019-03-11T02:10:23.444Z,60.98
2019-03-11T02:11:23.420Z,61.91
2019-03-11T02:12:23.415Z,61.16
2019-03-11T02:13:23.399Z,61.19
2019-03-11T02:14:23.394Z,61.70
2019-03-11T02:15:23.408Z,60.57
2019-03-11T02:16:23.366Z,60.47
2019-03-11T02:17:23.355Z,59.84
2019-03-11T02:18:23.354Z,60.77
2019-03-11T02:19:23.333Z,60.98
2019-03-11T02:20:23.335Z,61.70
2019-03-11T02:21:23.326Z,60.57
2019-03-11T02:22:23.297Z,60.98
2019-03-11T02:23:23.289Z,60.05
2019-03-11T02:24:23.279Z,60.77
2019-03-11T02:25:23.279Z,60.16
2019-03-11T02:26:23.253Z,59.95
2019-03-11T02:27:23.249Z,60.98
2019-03-11T02:28:23.270Z,61.08
2019-03-11T02:29:23.227Z,61.50
2019-03-11T02:30:23.284Z,60.98
2019-03-11T02:31:23.204Z,61.29
2019-03-11T02:32:23.185Z,60.77
2019-03-11T02:33:23.176Z,60.77
2019-03-11T02:34:23.174Z,61.29
2019-03-11T02:35:23.151Z,61.29
2019-03-11T02:36:23.151Z,60.60
2019-03-11T02:37:23.150Z,61.22
2019-03-11T02:38:23.124Z,61.80
2019-03-11T02:39:23.116Z,61.01
2019-03-11T02:40:23.147Z,61.40
2019-03-11T02:41:23.099Z,60.57
2019-03-11T02:42:23.073Z,61.91
2019-03-11T02:43:23.070Z,60.88
2019-03-11T02:44:23.056Z,61.94
2019-03-11T02:45:23.051Z,62.01
2019-03-11T02:46:23.055Z,61.60
2019-03-11T02:47:23.016Z,61.19
2019-03-11T02:48:23.009Z,61.60
2019-03-11T02:49:22.996Z,60.98
2019-03-11T02:50:22.997Z,61.91
2019-03-11T02:51:22.987Z,62.01
2019-03-11T02:52:22.964Z,61.08
2019-03-11T02:53:22.951Z,61.50
2019-03-11T02:54:22.943Z,60.98
2019-03-11T02:55:22.928Z,61.60
2019-03-11T02:56:22.920Z,61.08
2019-03-11T02:57:22.904Z,61.50
2019-03-11T02:58:22.899Z,61.29
2019-03-11T02:59:22.882Z,61.08
2019-03-11T03:00:22.889Z,61.50
2019-03-11T03:01:22.865Z,62.04
2019-03-11T03:02:22.852Z,61.91
2019-03-11T03:03:22.845Z,61.70
2019-03-11T03:04:22.832Z,61.29
2019-03-11T03:05:22.823Z,61.08
2019-03-11T03:06:22.808Z,60.98
2019-03-11T03:07:22.791Z,61.50
2019-03-11T03:08:22.786Z,61.29
2019-03-11T03:09:22.771Z,61.91
2019-03-11T03:10:22.765Z,61.80
2019-03-11T03:11:22.763Z,61.08
2019-03-11T03:12:22.742Z,61.29
2019-03-11T03:13:22.733Z,61.08
2019-03-11T03:14:22.717Z,61.29
2019-03-11T03:15:22.707Z,61.29
2019-03-11T03:16:22.693Z,61.80
2019-03-11T03:17:22.843Z,61.91
2019-03-11T03:18:22.675Z,62.01
2019-03-11T03:19:22.659Z,62.01
2019-03-11T03:20:22.651Z,62.22
2019-03-11T03:21:22.644Z,62.01
2019-03-11T03:22:22.637Z,62.63
2019-03-11T03:23:22.656Z,62.43
2019-03-11T03:24:22.618Z,61.88
2019-03-11T03:25:33.874Z,62.08
2019-03-11T03:26:23.580Z,61.78
2019-03-11T03:27:22.576Z,61.26
2019-03-11T03:28:22.577Z,61.85
2019-03-11T03:29:22.551Z,61.03
2019-03-11T03:30:22.536Z,61.65
2019-03-11T03:31:22.527Z,61.54
2019-03-11T03:32:22.521Z,62.06
2019-03-11T03:33:22.537Z,61.54
2019-03-11T03:34:22.502Z,61.85
2019-03-11T03:35:22.495Z,61.85
2019-03-11T03:36:22.475Z,61.54
2019-03-11T03:37:22.476Z,61.75
2019-03-11T03:38:30.668Z,61.65
2019-03-11T03:39:23.492Z,61.03
2019-03-11T03:40:22.523Z,62.16
2019-03-11T03:41:22.428Z,61.13
2019-03-11T03:42:22.406Z,61.41
2019-03-11T03:43:22.395Z,61.54
2019-03-11T03:44:22.379Z,61.85
2019-03-11T03:45:22.372Z,61.96
2019-03-11T03:46:22.367Z,61.96
2019-03-11T03:47:22.350Z,62.26
2019-03-11T03:48:22.383Z,61.96
2019-03-11T03:49:22.323Z,62.16
2019-03-11T03:50:22.318Z,62.26
2019-03-11T03:51:22.320Z,62.47
2019-03-11T03:52:22.307Z,62.65
2019-03-11T03:53:22.290Z,62.57
2019-03-11T03:54:22.279Z,62.37
2019-03-11T03:55:22.260Z,62.47
2019-03-11T03:56:22.260Z,62.65
2019-03-11T03:57:22.521Z,62.16
2019-03-11T03:58:22.243Z,61.93
2019-03-11T03:59:22.213Z,62.78
2019-03-11T04:00:22.203Z,62.65
2019-03-11T04:01:22.190Z,62.44
2019-03-11T04:02:22.189Z,62.54
2019-03-11T04:03:22.341Z,62.54
2019-03-11T04:04:22.161Z,62.68
2019-03-11T04:05:22.151Z,62.65
2019-03-11T04:06:22.138Z,62.99
2019-03-11T04:07:22.150Z,63.89
2019-03-11T04:08:22.118Z,64.64
2019-03-11T04:09:22.107Z,65.88
2019-03-11T04:10:22.107Z,66.08
2019-03-11T04:11:22.085Z,66.18
2019-03-11T04:12:22.080Z,65.36
2019-03-11T04:13:22.070Z,66.08
2019-03-11T04:14:22.061Z,66.08
2019-03-11T04:15:22.037Z,66.60
2019-03-11T04:16:22.043Z,65.46
2019-03-11T04:17:22.019Z,65.88
2019-03-11T04:18:22.346Z,66.18
2019-03-11T04:19:21.994Z,66.91
2019-03-11T04:20:21.979Z,65.98
2019-03-11T04:21:21.973Z,65.77
2019-03-11T04:22:21.964Z,65.70
2019-03-11T04:23:21.948Z,66.73
2019-03-11T04:24:21.946Z,66.63
2019-03-11T04:25:21.930Z,66.94
2019-03-11T04:26:21.912Z,67.55
2019-03-11T04:27:21.900Z,67.90
2019-03-11T04:28:21.898Z,68.51
2019-03-11T04:29:21.879Z,68.48
2019-03-11T04:30:21.872Z,69.03
2019-03-11T04:31:21.857Z,70.30
2019-03-11T04:32:21.847Z,70.30
2019-03-11T04:33:21.885Z,71.02
2019-03-11T04:34:21.841Z,71.12
2019-03-11T04:35:21.822Z,71.54
2019-03-11T04:36:21.842Z,72.71
2019-03-11T04:37:21.792Z,72.78
2019-03-11T04:38:21.784Z,72.81
2019-03-11T04:39:21.771Z,73.02
2019-03-11T04:40:21.761Z,73.85
2019-03-11T04:41:21.751Z,74.15
2019-03-11T04:42:21.739Z,75.09
2019-03-11T04:43:21.741Z,74.57
2019-03-11T04:44:21.713Z,75.09
2019-03-11T04:45:21.703Z,74.77
2019-03-11T04:46:21.694Z,75.49
2019-03-11T04:47:21.679Z,75.09
2019-03-11T04:48:21.688Z,74.98
2019-03-11T04:49:21.659Z,75.81
2019-03-11T04:50:21.645Z,76.64
2019-03-11T04:51:21.634Z,75.53
2019-03-11T04:52:21.625Z,75.63
2019-03-11T04:53:21.636Z,75.53
2019-03-11T04:54:21.602Z,74.81
2019-03-11T04:55:21.608Z,74.50
2019-03-11T04:56:21.686Z,74.60
2019-03-11T04:57:23.468Z,74.60
2019-03-11T04:58:21.574Z,75.22
2019-03-11T04:59:21.563Z,74.91
2019-03-11T05:00:21.544Z,74.29
2019-03-11T05:01:21.524Z,74.50
2019-03-11T05:02:21.516Z,74.91
2019-03-11T05:03:21.502Z,74.81
2019-03-11T05:04:21.862Z,75.53
2019-03-11T05:05:21.480Z,75.01
2019-03-11T05:06:21.465Z,74.81
2019-03-11T05:07:21.454Z,75.12
2019-03-11T05:08:21.444Z,75.15
2019-03-11T05:09:21.437Z,75.05
2019-03-11T05:10:22.329Z,75.26
2019-03-11T05:11:21.410Z,74.53
2019-03-11T05:12:21.400Z,74.95
2019-03-11T05:13:21.390Z,74.43
2019-03-11T05:14:21.379Z,74.43
2019-03-11T05:15:21.375Z,74.43
2019-03-11T05:16:21.373Z,74.95
2019-03-11T05:17:21.353Z,75.05
2019-03-11T05:18:21.331Z,74.74
2019-03-11T05:19:21.326Z,74.22
2019-03-11T05:20:21.321Z,74.74
2019-03-11T05:21:21.320Z,74.74
2019-03-11T05:22:21.309Z,74.12
2019-03-11T05:23:21.279Z,73.81
2019-03-11T05:24:21.266Z,73.60
2019-03-11T05:25:21.253Z,73.60
2019-03-11T05:26:21.243Z,73.29
2019-03-11T05:27:21.235Z,73.81
2019-03-11T05:28:21.227Z,73.29
2019-03-11T05:29:21.211Z,73.19
2019-03-11T05:30:21.196Z,72.98
2019-03-11T05:31:21.187Z,72.67
2019-03-11T05:32:21.177Z,72.26
2019-03-11T05:33:21.179Z,72.26
2019-03-11T05:34:21.180Z,71.12
2019-03-11T05:35:21.141Z,71.22
2019-03-11T05:36:21.145Z,70.61
2019-03-11T05:37:21.120Z,70.61
2019-03-11T05:38:21.153Z,70.81
2019-03-11T05:39:21.111Z,70.61
2019-03-11T05:40:21.087Z,70.81
2019-03-11T05:41:21.074Z,70.29
2019-03-11T05:42:21.079Z,69.98
2019-03-11T05:43:21.060Z,68.23
2019-03-11T05:44:21.048Z,68.23
2019-03-11T05:45:21.057Z,68.12
2019-03-11T05:46:21.027Z,67.91
2019-03-11T05:47:21.007Z,68.43
2019-03-11T05:48:20.995Z,67.30
2019-03-11T05:49:20.992Z,67.09
2019-03-11T05:50:20.979Z,66.54
2019-03-11T05:51:31.163Z,67.16
2019-03-11T05:52:21.948Z,66.44
2019-03-11T05:53:20.938Z,66.96
2019-03-11T05:54:20.928Z,67.27
2019-03-11T05:55:20.931Z,66.54
2019-03-11T05:56:20.918Z,67.06
2019-03-11T05:57:20.910Z,67.16
2019-03-11T05:58:20.889Z,67.06
2019-03-11T05:59:20.876Z,66.44
2019-03-11T06:00:20.868Z,66.78
2019-03-11T06:01:20.852Z,67.06
2019-03-11T06:02:20.866Z,66.44
2019-03-11T06:03:20.834Z,67.19
2019-03-11T06:04:20.823Z,67.40
2019-03-11T06:05:20.807Z,66.96
2019-03-11T06:06:20.801Z,66.57
2019-03-11T06:07:20.785Z,66.96
2019-03-11T06:08:20.769Z,66.96
2019-03-11T06:09:20.760Z,66.99
2019-03-11T06:10:20.749Z,67.09
2019-03-11T06:11:20.736Z,67.16
2019-03-11T06:12:20.737Z,66.78
2019-03-11T06:13:20.735Z,66.88
2019-03-11T06:14:20.721Z,66.78
2019-03-11T06:15:20.696Z,66.67
2019-03-11T06:16:20.684Z,66.47
2019-03-11T06:17:20.676Z,66.36
2019-03-11T06:18:20.668Z,66.36
2019-03-11T06:19:20.656Z,66.26
2019-03-11T06:20:20.652Z,66.85
2019-03-11T06:21:20.626Z,66.06
2019-03-11T06:22:20.613Z,65.95
2019-03-11T06:23:20.603Z,65.82
2019-03-11T06:24:20.591Z,65.12
2019-03-11T06:25:20.602Z,64.81
2019-03-11T06:26:20.568Z,65.12
2019-03-11T06:27:20.558Z,64.30
2019-03-11T06:28:20.548Z,64.37
2019-03-11T06:29:29.926Z,64.89
2019-03-11T06:30:21.551Z,64.48
2019-03-11T06:31:20.512Z,64.81
2019-03-11T06:32:20.501Z,63.75
2019-03-11T06:33:20.494Z,64.27
2019-03-11T06:34:20.480Z,63.23
2019-03-11T06:35:20.474Z,63.23
2019-03-11T06:36:20.459Z,63.47
2019-03-11T06:37:20.444Z,64.06
2019-03-11T06:38:20.432Z,63.57
2019-03-11T06:39:20.425Z,62.85
2019-03-11T06:40:20.410Z,63.26
2019-03-11T06:41:20.404Z,63.16
2019-03-11T06:42:20.394Z,63.65
2019-03-11T06:43:20.405Z,63.16
2019-03-11T06:44:20.387Z,63.13
2019-03-11T06:45:20.364Z,62.44
2019-03-11T06:46:20.346Z,62.82
2019-03-11T06:47:20.333Z,62.51
2019-03-11T06:48:20.328Z,62.75
2019-03-11T06:49:20.314Z,62.41
2019-03-11T06:50:20.310Z,62.20
2019-03-11T06:51:20.296Z,61.99
2019-03-11T06:52:20.295Z,61.99
2019-03-11T06:53:20.267Z,61.79
2019-03-11T06:54:20.254Z,61.99
2019-03-11T06:55:20.242Z,62.10
2019-03-11T06:56:20.244Z,62.10
2019-03-11T06:57:20.225Z,61.79
2019-03-11T06:58:20.218Z,61.69
2019-03-11T06:59:20.200Z,61.48
2019-03-11T07:00:20.198Z,62.10
2019-03-11T07:01:20.179Z,61.48
2019-03-11T07:02:20.166Z,60.24
2019-03-11T07:03:20.160Z,60.96
2019-03-11T07:04:20.143Z,60.65
2019-03-11T07:05:21.144Z,59.80
2019-03-11T07:06:20.132Z,59.20
2019-03-11T07:07:20.109Z,59.62
2019-03-11T07:08:20.098Z,59.69
2019-03-11T07:09:20.146Z,59.52
2019-03-11T07:10:20.076Z,60.11
2019-03-11T07:11:20.359Z,60.00
2019-03-11T07:12:20.087Z,59.80
2019-03-11T07:13:20.050Z,59.69
2019-03-11T07:14:20.035Z,60.00
2019-03-11T07:15:20.018Z,60.63
2019-03-11T07:16:20.024Z,60.42
2019-03-11T07:17:19.996Z,58.45
2019-03-11T07:18:19.988Z,58.48
2019-03-11T07:19:19.973Z,59.39
2019-03-11T07:20:19.961Z,58.35
2019-03-11T07:21:19.958Z,59.08
2019-03-11T07:22:19.950Z,58.97
2019-03-11T07:23:19.931Z,58.56
2019-03-11T07:24:19.925Z,58.45
2019-03-11T07:25:19.920Z,58.97
2019-03-11T07:26:19.895Z,59.36
2019-03-11T07:27:19.892Z,58.22
2019-03-11T07:28:19.879Z,58.53
2019-03-11T07:29:19.892Z,58.33
2019-03-11T07:30:19.850Z,57.94
2019-03-11T07:31:19.847Z,57.91
2019-03-11T07:32:19.838Z,58.20
2019-03-11T07:33:19.824Z,58.09
2019-03-11T07:34:19.824Z,57.99
2019-03-11T07:35:19.793Z,57.89
2019-03-11T07:36:19.790Z,57.89
2019-03-11T07:37:19.963Z,57.57
2019-03-11T07:38:19.788Z,56.85
2019-03-11T07:39:19.749Z,57.17
2019-03-11T07:40:29.175Z,57.47
2019-03-11T07:41:20.724Z,57.06
2019-03-11T07:42:19.731Z,57.06
2019-03-11T07:43:19.703Z,57.65
2019-03-11T07:44:19.695Z,57.34
2019-03-11T07:45:19.751Z,57.86
2019-03-11T07:46:19.669Z,58.06
2019-03-11T07:47:19.664Z,58.04
2019-03-11T07:48:19.648Z,58.35
2019-03-11T07:49:19.635Z,58.35
2019-03-11T07:50:19.683Z,58.65
2019-03-11T07:51:19.624Z,58.35
2019-03-11T07:52:19.608Z,58.76
2019-03-11T07:53:19.604Z,58.89
2019-03-11T07:54:19.578Z,58.17
2019-03-11T07:55:19.568Z,59.61
2019-03-11T07:56:19.574Z,60.05
2019-03-11T07:57:19.576Z,60.23
2019-03-11T07:58:19.541Z,59.69
2019-03-11T07:59:19.526Z,59.17
2019-03-11T08:00:19.513Z,59.25
2019-03-11T08:01:19.503Z,59.56
2019-03-11T08:02:19.497Z,59.14
2019-03-11T08:03:19.481Z,59.66
2019-03-11T08:04:19.474Z,58.32
2019-03-11T08:05:19.460Z,58.42
2019-03-11T08:06:19.448Z,58.84
2019-03-11T08:07:19.441Z,58.22
2019-03-11T08:08:19.456Z,58.42
2019-03-11T08:09:19.413Z,57.65
2019-03-11T08:10:19.412Z,57.78
2019-03-11T08:11:19.396Z,56.93
2019-03-11T08:12:19.380Z,57.57
2019-03-11T08:13:19.365Z,57.29
2019-03-11T08:14:19.360Z,58.01
2019-03-11T08:15:19.366Z,58.76
2019-03-11T08:16:19.332Z,58.11
2019-03-11T08:17:19.341Z,58.65
2019-03-11T08:18:19.308Z,58.45
2019-03-11T08:19:19.303Z,59.09
2019-03-11T08:20:19.286Z,59.61
2019-03-11T08:21:19.279Z,59.89
2019-03-11T08:22:19.310Z,59.48
2019-03-11T08:23:19.252Z,59.48
2019-03-11T08:24:19.263Z,58.32
2019-03-11T08:25:19.229Z,58.50
2019-03-11T08:26:19.219Z,58.16
2019-03-11T08:27:19.225Z,56.72
2019-03-11T08:28:19.200Z,57.98
2019-03-11T08:29:19.184Z,57.65
2019-03-11T08:30:19.176Z,58.09
2019-03-11T08:31:19.165Z,57.52
2019-03-11T08:32:19.151Z,57.14
2019-03-11T08:33:19.141Z,58.09
2019-03-11T08:34:19.142Z,57.88
2019-03-11T08:35:19.131Z,57.39
2019-03-11T08:36:19.115Z,58.34
2019-03-11T08:37:19.116Z,58.06
2019-03-11T08:38:19.109Z,57.86
2019-03-11T08:39:19.071Z,57.65
2019-03-11T08:40:19.060Z,56.18
2019-03-11T08:41:19.049Z,57.34
2019-03-11T08:42:19.041Z,58.19
2019-03-11T08:43:19.034Z,58.50
2019-03-11T08:44:19.057Z,58.63
2019-03-11T08:45:19.005Z,58.32
2019-03-11T08:46:18.993Z,59.04
2019-03-11T08:47:18.981Z,58.50
2019-03-11T08:48:18.975Z,58.19
2019-03-11T08:49:18.957Z,58.40
2019-03-11T08:50:18.949Z,58.42
2019-03-11T08:51:18.937Z,59.77
2019-03-11T08:52:18.923Z,58.26
2019-03-11T08:53:18.978Z,54.43
2019-03-11T08:54:18.908Z,53.25
2019-03-11T08:55:18.892Z,51.28
2019-03-11T08:56:18.880Z,50.87
2019-03-11T08:57:18.875Z,51.10
2019-03-11T08:58:18.861Z,51.15
2019-03-11T08:59:18.855Z,51.45
2019-03-11T09:00:18.846Z,52.12
2019-03-11T09:01:18.823Z,51.12
2019-03-11T09:02:18.814Z,52.33
2019-03-11T09:03:18.806Z,51.15
2019-03-11T09:04:18.793Z,50.53
2019-03-11T09:05:18.785Z,49.48
2019-03-11T09:06:18.767Z,49.58
2019-03-11T09:07:18.756Z,48.89
2019-03-11T09:08:18.750Z,49.22
2019-03-11T09:09:18.736Z,49.19
2019-03-11T09:10:18.735Z,47.84
2019-03-11T09:11:18.736Z,46.87
2019-03-11T09:12:18.698Z,47.22
2019-03-11T09:13:18.690Z,46.83
2019-03-11T09:14:18.679Z,47.55
2019-03-11T09:15:18.669Z,47.55
2019-03-11T09:16:18.660Z,48.72
2019-03-11T09:17:18.654Z,49.35
2019-03-11T09:18:18.683Z,48.75
2019-03-11T09:19:18.624Z,49.57
2019-03-11T09:20:18.619Z,48.60
2019-03-11T09:21:18.606Z,48.68
2019-03-11T09:22:18.587Z,47.84
2019-03-11T09:23:18.591Z,47.53
2019-03-11T09:24:19.621Z,46.71
2019-03-11T09:25:18.554Z,47.09
2019-03-11T09:26:18.547Z,46.58
2019-03-11T09:27:18.532Z,46.25
2019-03-11T09:28:18.558Z,46.87
2019-03-11T09:29:18.568Z,46.56
2019-03-11T09:30:18.496Z,46.20
2019-03-11T09:31:18.487Z,47.12
2019-03-11T09:32:19.585Z,46.73
2019-03-11T09:33:18.469Z,46.53
2019-03-11T09:34:18.469Z,47.14
2019-03-11T09:35:18.466Z,47.66
2019-03-11T09:36:18.430Z,47.37
2019-03-11T09:37:18.421Z,47.58
2019-03-11T09:38:18.422Z,47.70
2019-03-11T09:39:18.411Z,48.09
2019-03-11T09:40:18.390Z,47.58
2019-03-11T09:41:18.383Z,46.47
2019-03-11T09:42:18.365Z,46.57
2019-03-11T09:43:18.357Z,48.03
2019-03-11T09:44:18.352Z,47.92
2019-03-11T09:45:18.334Z,48.34
2019-03-11T09:46:18.332Z,47.41
2019-03-11T09:47:18.307Z,46.11
2019-03-11T09:48:18.296Z,45.56
2019-03-11T09:49:18.290Z,44.84
2019-03-11T09:50:18.348Z,44.20
2019-03-11T09:51:18.267Z,44.94
2019-03-11T09:52:18.255Z,44.94
2019-03-11T09:53:18.238Z,44.86
2019-03-11T09:54:18.233Z,44.88
2019-03-11T09:55:18.216Z,45.33
2019-03-11T09:56:18.211Z,44.24
2019-03-11T09:57:18.203Z,45.09
2019-03-11T09:58:18.189Z,45.09
2019-03-11T09:59:18.185Z,44.98
2019-03-11T10:00:18.174Z,44.88
2019-03-11T10:01:18.156Z,44.68
2019-03-11T10:02:18.167Z,44.88
2019-03-11T10:03:18.137Z,45.19
2019-03-11T10:04:18.136Z,44.86
2019-03-11T10:05:18.103Z,45.13
2019-03-11T10:06:18.095Z,44.00
2019-03-11T10:07:18.098Z,44.29
2019-03-11T10:08:18.072Z,43.77
2019-03-11T10:09:18.072Z,44.20
2019-03-11T10:10:18.047Z,44.12
2019-03-11T10:11:18.050Z,44.76
2019-03-11T10:12:18.030Z,44.96
2019-03-11T10:13:18.038Z,45.66
2019-03-11T10:14:18.033Z,45.68
2019-03-11T10:15:17.991Z,45.99
2019-03-11T10:16:17.982Z,44.86
2019-03-11T10:17:17.972Z,44.96
2019-03-11T10:18:17.957Z,44.96
2019-03-11T10:19:17.977Z,45.04
2019-03-11T10:20:17.954Z,44.74
2019-03-11T10:21:17.929Z,44.84
2019-03-11T10:22:17.913Z,44.23
2019-03-11T10:23:17.915Z,44.64
2019-03-11T10:24:17.892Z,44.56
2019-03-11T10:25:18.842Z,45.78
2019-03-11T10:26:17.873Z,45.17
2019-03-11T10:27:17.854Z,44.26
2019-03-11T10:28:17.847Z,44.37
2019-03-11T10:29:17.843Z,45.01
2019-03-11T10:30:17.839Z,44.90
2019-03-11T10:31:17.815Z,46.26
2019-03-11T10:32:17.811Z,46.15
2019-03-11T10:33:17.796Z,46.88
2019-03-11T10:34:17.780Z,46.47
2019-03-11T10:35:32.911Z,46.36
2019-03-11T10:36:18.755Z,46.36
2019-03-11T10:37:17.750Z,46.96
2019-03-11T10:38:17.731Z,47.16
2019-03-11T10:39:17.723Z,46.01
2019-03-11T10:40:17.719Z,45.09
2019-03-11T10:41:17.701Z,44.47
2019-03-11T10:42:17.692Z,45.09
2019-03-11T10:43:17.680Z,44.68
2019-03-11T10:44:17.663Z,45.10
2019-03-11T10:45:17.655Z,45.01
2019-03-11T10:46:17.644Z,45.01
2019-03-11T10:47:17.632Z,45.10
2019-03-11T10:48:17.620Z,45.01
2019-03-11T10:49:17.622Z,44.49
2019-03-11T10:50:17.598Z,44.72
2019-03-11T10:51:17.587Z,44.62
2019-03-11T10:52:17.595Z,45.01
2019-03-11T10:53:17.562Z,45.21
2019-03-11T10:54:17.554Z,45.31
2019-03-11T10:55:17.544Z,45.21
2019-03-11T10:56:17.529Z,46.34
2019-03-11T10:57:17.521Z,45.93
2019-03-11T10:58:17.517Z,45.21
2019-03-11T10:59:17.500Z,45.01
2019-03-11T11:00:17.498Z,45.31
2019-03-11T11:01:17.475Z,45.27
2019-03-11T11:02:17.462Z,43.52
2019-03-11T11:03:17.451Z,44.04
2019-03-11T11:04:17.448Z,44.65
2019-03-11T11:05:17.432Z,44.14
2019-03-11T11:06:17.449Z,43.42
2019-03-11T11:07:17.429Z,44.14
2019-03-11T11:08:17.396Z,44.76
2019-03-11T11:09:17.387Z,44.56
2019-03-11T11:10:17.384Z,44.45
2019-03-11T11:11:17.368Z,44.65
2019-03-11T11:12:17.358Z,43.84
2019-03-11T11:13:17.341Z,43.55
2019-03-11T11:14:17.331Z,44.47
2019-03-11T11:15:17.330Z,43.85
2019-03-11T11:16:17.324Z,44.14
2019-03-11T11:17:17.313Z,43.61
2019-03-11T11:18:17.283Z,42.66
2019-03-11T11:19:17.294Z,42.77
2019-03-11T11:20:17.282Z,42.46
2019-03-11T11:21:17.252Z,43.10
2019-03-11T11:22:17.241Z,42.91
2019-03-11T11:23:17.259Z,43.24
2019-03-11T11:24:17.217Z,43.96
2019-03-11T11:25:17.219Z,43.63
2019-03-11T11:26:17.196Z,42.83
2019-03-11T11:27:17.185Z,43.85
2019-03-11T11:28:17.173Z,44.37
2019-03-11T11:29:17.196Z,43.85
2019-03-11T11:30:17.202Z,43.87
2019-03-11T11:31:17.141Z,43.85
2019-03-11T11:32:17.126Z,44.29
2019-03-11T11:33:17.116Z,43.57
2019-03-11T11:34:17.110Z,44.80
2019-03-11T11:35:17.121Z,43.98
2019-03-11T11:36:17.083Z,44.26
2019-03-11T11:37:17.078Z,43.75
2019-03-11T11:38:17.064Z,43.67
2019-03-11T11:39:17.059Z,44.39
2019-03-11T11:40:17.038Z,43.57
2019-03-11T11:41:17.040Z,44.18
2019-03-11T11:42:17.013Z,44.90
2019-03-11T11:43:17.003Z,44.20
2019-03-11T11:44:16.993Z,44.72
2019-03-11T11:45:16.984Z,44.92
2019-03-11T11:46:16.973Z,44.72
2019-03-11T11:47:16.959Z,45.04
2019-03-11T11:48:16.957Z,44.72
2019-03-11T11:49:16.942Z,45.04
2019-03-11T11:50:16.924Z,44.82
2019-03-11T11:51:16.922Z,45.56
2019-03-11T11:52:16.907Z,45.95
2019-03-11T11:53:16.926Z,44.92
2019-03-11T11:54:16.879Z,44.62
2019-03-11T11:55:16.868Z,44.92
2019-03-11T11:56:16.863Z,44.95
2019-03-11T11:57:16.846Z,46.47
2019-03-11T11:58:16.847Z,46.77
2019-03-11T11:59:16.823Z,44.72
2019-03-11T12:00:16.812Z,45.54
2019-03-11T12:01:16.811Z,45.03
2019-03-11T12:02:16.788Z,45.13
2019-03-11T12:03:16.784Z,44.31
2019-03-11T12:04:16.782Z,44.92
2019-03-11T12:05:16.758Z,44.92
2019-03-11T12:06:16.746Z,44.72
2019-03-11T12:07:16.738Z,45.23
2019-03-11T12:08:16.724Z,45.54
2019-03-11T12:09:16.714Z,45.23
2019-03-11T12:10:16.697Z,45.21
2019-03-11T12:11:16.690Z,45.09
2019-03-11T12:12:16.675Z,44.86
2019-03-11T12:13:16.666Z,45.09
2019-03-11T12:14:16.658Z,44.24
2019-03-11T12:15:16.652Z,43.44
2019-03-11T12:16:16.654Z,42.30
2019-03-11T12:17:16.623Z,41.80
2019-03-11T12:18:16.611Z,42.63
2019-03-11T12:19:16.610Z,42.22
2019-03-11T12:20:16.587Z,42.63
2019-03-11T12:21:16.600Z,42.24
2019-03-11T12:22:16.564Z,42.13
2019-03-11T12:23:16.621Z,42.54
2019-03-11T12:24:16.566Z,42.44
2019-03-11T12:25:16.534Z,42.24
2019-03-11T12:26:16.523Z,42.25
2019-03-11T12:27:16.513Z,42.36
2019-03-11T12:28:16.494Z,42.56
2019-03-11T12:29:16.544Z,43.69
2019-03-11T12:30:16.474Z,42.97
2019-03-11T12:31:16.483Z,43.90
2019-03-11T12:32:16.453Z,43.59
2019-03-11T12:33:16.438Z,43.18
2019-03-11T12:34:16.429Z,44.23
2019-03-11T12:35:16.422Z,43.61
2019-03-11T12:36:16.423Z,44.56
2019-03-11T12:37:16.399Z,44.76
2019-03-11T12:38:16.384Z,44.53
2019-03-11T12:39:16.373Z,45.07
2019-03-11T12:40:16.362Z,44.86
2019-03-11T12:41:16.372Z,44.65
2019-03-11T12:42:16.338Z,45.37
2019-03-11T12:43:16.329Z,46.40
2019-03-11T12:44:16.328Z,46.09
2019-03-11T12:45:16.303Z,46.28
2019-03-11T12:46:16.295Z,44.53
2019-03-11T12:47:16.291Z,44.43
2019-03-11T12:48:16.274Z,45.66
2019-03-11T12:49:16.262Z,45.23
2019-03-11T12:50:16.256Z,45.03
2019-03-11T12:51:16.236Z,43.73
2019-03-11T12:52:16.227Z,43.85